»·PEaware :: UAL582 KLAS-KSNA

UAL582 :: KLAS-KSNA

FLIGHT INFORMATION

Flight Status: Arrived
Operator:
United Airlines
More flights by this operator :: More flights under this callsign
Pilot: Max W. (2591)
Aircraft: BOEING 737-700
(B737)
More flights by this aircraft type
Origin: KLAS McCarran Intl
United States
Destination: KSNA John Wayne-Orange Co
United States
More flights between these airports :: More routes between these airports
Route: +BOACH8 WHIGG FEYLA ROOBY1
File this flight plan on PilotEdge
Remarks:
Altitude:
(Current/Filed)
26,000ft
Speed:
(Current/Filed)
450kts
Departed: 04-Dec-17 08:47 PM
Arrived: 04-Dec-17 09:32 PM
Distance/Time
Traveled:
196nm/0:45
Distance/Time
To Go:
Arrived

Flight Plot

Page will automatically refresh every two minutes.

Flight plan parsing failed; only flown route is shown


Map Options




Map Legend


Flown Route
Filed Route
Departure Airport
Arrival Airport
Navaid (VOR, NDB)
Fix

Horizontal Profiles

Position Reports

Time Latitude Longitude Heading Altitude Ground
Speed
04-Dec-17 20:26 36.083287 -115.140306 129 2188ft 0kts
04-Dec-17 20:27 36.083287 -115.140306 129 2188ft 0kts
04-Dec-17 20:28 36.083287 -115.140306 129 2188ft 0kts
04-Dec-17 20:30 36.083287 -115.140306 129 2188ft 0kts
04-Dec-17 20:31 36.083287 -115.140306 129 2188ft 0kts
04-Dec-17 20:33 36.083287 -115.140306 129 2188ft 0kts
04-Dec-17 20:34 36.083287 -115.140306 129 2189ft 0kts
04-Dec-17 20:35 36.083287 -115.140306 129 2189ft 0kts
04-Dec-17 20:36 36.083287 -115.140306 129 2189ft 0kts
04-Dec-17 20:37 36.083287 -115.140306 129 2189ft 0kts
04-Dec-17 20:38 36.083287 -115.140306 129 2189ft 0kts
04-Dec-17 20:39 36.083287 -115.140306 129 2189ft 0kts
04-Dec-17 20:40 36.083416 -115.140494 130 2189ft 2kts
04-Dec-17 20:41 36.083562 -115.140706 130 2189ft 0kts
04-Dec-17 20:42 36.083443 -115.140686 194 2189ft 6kts
04-Dec-17 20:43 36.081397 -115.141433 188 2189ft 9kts
04-Dec-17 20:44 36.078827 -115.142350 200 2188ft 0kts
04-Dec-17 20:45 36.078821 -115.142352 200 2189ft 0kts
04-Dec-17 20:46 36.078121 -115.143955 246 2189ft 20kts
04-Dec-17 20:47 36.078020 -115.152466 271 2189ft 28kts
04-Dec-17 20:48 36.078019 -115.161153 270 2189ft 27kts
04-Dec-17 20:49 36.074365 -115.165200 204 2188ft 17kts
04-Dec-17 20:50 36.073835 -115.166110 287 2189ft 0kts
04-Dec-17 20:51 36.074880 -115.167144 24 2189ft 15kts
04-Dec-17 20:52 36.105136 -115.151374 6 3468ft 163kts
04-Dec-17 20:53 36.124811 -115.207038 258 5831ft 254kts
04-Dec-17 20:54 36.096860 -115.289256 218 9500ft 286kts
04-Dec-17 20:55 36.019601 -115.331488 200 10020ft 323kts
04-Dec-17 20:56 35.928729 -115.374602 194 12408ft 351kts
04-Dec-17 20:57 35.831132 -115.354838 164 16100ft 370kts
04-Dec-17 20:58 35.730796 -115.315101 167 18925ft 384kts
04-Dec-17 20:59 35.637763 -115.343613 228 19269ft 354kts
04-Dec-17 21:00 35.573048 -115.436304 230 19255ft 359kts
04-Dec-17 21:01 35.505105 -115.527479 230 21835ft 359kts
04-Dec-17 21:02 35.437254 -115.618809 231 24631ft 365kts
04-Dec-17 21:03 35.367682 -115.712664 231 26232ft 384kts
04-Dec-17 21:04 35.295495 -115.809343 231 26243ft 382kts
04-Dec-17 21:05 35.224427 -115.904439 231 26242ft 376kts
04-Dec-17 21:06 35.151466 -115.996403 230 26244ft 373kts
04-Dec-17 21:07 35.078596 -116.088272 230 26245ft 378kts
04-Dec-17 21:08 35.005430 -116.180284 230 26248ft 378kts
04-Dec-17 21:09 34.932032 -116.272085 230 26258ft 376kts
04-Dec-17 21:10 34.859431 -116.363461 230 26257ft 375kts
04-Dec-17 21:11 34.787452 -116.455207 230 26249ft 376kts
04-Dec-17 21:12 34.715110 -116.546996 230 26247ft 374kts
04-Dec-17 21:13 34.640653 -116.626727 225 26244ft 350kts
04-Dec-17 21:14 34.565562 -116.699773 224 24694ft 340kts
04-Dec-17 21:15 34.493164 -116.771157 226 22523ft 328kts
04-Dec-17 21:16 34.428785 -116.846944 228 20425ft 318kts
04-Dec-17 21:17 34.365471 -116.920592 227 18373ft 311kts
04-Dec-17 21:18 34.303646 -116.991945 226 16312ft 305kts
04-Dec-17 21:19 34.236567 -117.056069 213 14437ft 318kts
04-Dec-17 21:20 34.158094 -117.111354 210 12968ft 325kts
04-Dec-17 21:21 34.076799 -117.158357 207 12568ft 327kts
04-Dec-17 21:22 33.994848 -117.206064 207 12153ft 327kts
04-Dec-17 21:23 33.915936 -117.250160 206 11193ft 286kts
04-Dec-17 21:24 33.845347 -117.288576 205 10145ft 276kts
04-Dec-17 21:25 33.778235 -117.328100 207 9416ft 267kts
04-Dec-17 21:26 33.709830 -117.368781 206 8353ft 275kts
04-Dec-17 21:27 33.641359 -117.409351 205 7459ft 273kts
04-Dec-17 21:28 33.578085 -117.456872 240 6542ft 270kts
04-Dec-17 21:29 33.573827 -117.542494 271 5660ft 250kts
04-Dec-17 21:30 33.572648 -117.624843 270 4802ft 246kts
04-Dec-17 21:31 33.570451 -117.706876 265 3963ft 241kts
04-Dec-17 21:32 33.555092 -117.779938 256 3974ft 206kts
04-Dec-17 21:33 33.556534 -117.845190 281 3052ft 198kts
04-Dec-17 21:34 33.578428 -117.901053 316 1823ft 183kts
04-Dec-17 21:35 33.620682 -117.905635 36 1325ft 151kts
04-Dec-17 21:36 33.654599 -117.882078 31 421ft 129kts
04-Dec-17 21:37 33.681350 -117.865321 26 64ft 34kts
04-Dec-17 21:38 33.681458 -117.864578 118 64ft 0kts
04-Dec-17 21:39 33.680916 -117.863647 123 64ft 21kts

Navigation Log

Ident Type
Flight plan parsing failed, navigation log unavailable